Data for 07/20/2013

Time Sea-Level Adjusted Pressure Absolute Pressure Temperature Relative Humidity Dew Point   
(mb) (inHg) (mb) (inHg) (C) (F) (%) (C) (F)
00:05 1021 30.15 850 25.1 16.9 62.3 31 -0.1 31.9
00:10 1021 30.15 850 25.1 17.2 63 31 0.2 32.4
00:15 1021 30.15 850 25.1 16.9 62.4 33 0.6 33.2
00:20 1021 30.15 850 25.1 16.5 61.7 33 0.5 32.9
00:25 1021 30.15 850 25.1 16.4 61.5 36 1.2 34.2
00:30 1021 30.15 850 25.1 16.5 61.6 33 0.4 32.7
00:35 1021 30.15 850 25.1 16.7 62 32 -0.1 31.8
00:40 1021 30.15 850 25.1 17.1 62.7 31 -0.1 31.8
00:45 1021 30.15 850 25.1 17.1 62.9 31 0.1 32.1
00:50 1021 30.15 850 25.1 17.3 63.1 32 0.6 33.1
00:55 1021 30.15 850 25.1 17.3 63.2 31 0.3 32.5
01:00 1021 30.15 850 25.1 17.3 63.1 30 -0.2 31.6
01:05 1021 30.15 850 25.1 17.3 63.1 32 0.6 33.1
01:10 1021 30.15 850 25.1 17.2 63 33 1 33.8
01:15 1021 30.15 850 25.1 17.6 63.7 30 -0.2 31.7
01:20 1021 30.15 850 25.1 18 64.3 29 -0.4 31.2
01:25 1021 30.15 850 25.1 17.9 64.2 30 0 32
01:30 1021 30.15 850 25.1 17.6 63.7 30 -0.1 31.8
01:35 1021 30.15 850 25.1 17.7 63.8 30 -0.2 31.7
01:40 1021 30.15 850 25.1 17.8 64.1 30 0.1 32.2
01:45 1021 30.15 850 25.1 17.6 63.7 30 0.2 32.3
01:50 1021 30.15 850 25.1 17.3 63.2 32 0.6 33.1
01:55 1021 30.15 850 25.1 16.7 62 37 1.9 35.3
02:00 1021 30.15 850 25.1 16.4 61.5 34 0.5 33
02:05 1021 30.15 850 25.1 16.2 61.2 35 0.7 33.2
02:10 1021 30.15 850 25.1 16 60.9 36 1.1 34
02:15 1021 30.15 850 25.1 15.8 60.4 36 1 33.8
02:20 1021 30.15 850 25.1 15.6 60.1 36 0.7 33.3
02:25 1021 30.15 850 25.1 15.7 60.3 36 0.8 33.4
02:30 1021 30.15 850 25.1 15.5 59.9 37 0.9 33.7
02:35 1021 30.15 850 25.1 15.3 59.5 36 0.6 33
02:40 1021 30.15 850 25.1 15.6 60 36 0.7 33.3
02:45 1020 30.12 850 25.1 15.4 59.8 39 1.8 35.2
02:50 1020 30.12 850 25.1 15.3 59.6 36 0.4 32.7
02:55 1020 30.12 850 25.1 15.3 59.5 36 0.5 32.9
03:00 1020 30.12 850 25.1 15.2 59.3 38 1.2 34.1
03:05 1020 30.12 849 25.07 14.6 58.2 40 1.2 34.2
03:10 1020 30.12 849 25.07 14.2 57.5 41 1.3 34.3
03:15 1020 30.12 849 25.07 14.1 57.4 41 1 33.8
03:20 1020 30.12 849 25.07 14.2 57.5 41 1 33.9
03:25 1020 30.12 849 25.07 14.3 57.8 39 0.6 33.1
03:30 1020 30.12 849 25.07 14.4 58 39 0.8 33.4
03:35 1020 30.12 849 25.07 14.4 58 39 0.6 33.1
03:40 1020 30.12 849 25.07 14.7 58.4 38 0.6 33.1
03:45 1020 30.12 849 25.07 15.3 59.5 35 0.2 32.3
03:50 1020 30.12 849 25.07 15.6 60.1 35 0.5 32.9
03:55 1020 30.12 849 25.07 15.5 59.9 36 0.6 33.1
04:00 1020 30.12 849 25.07 15.4 59.7 38 1.3 34.3
04:05 1020 30.12 849 25.07 15.1 59.1 36 0.3 32.5
04:10 1020 30.12 849 25.07 15.5 59.9 36 0.7 33.3
04:15 1020 30.12 849 25.07 15.5 59.9 36 0.7 33.3
04:20 1020 30.12 849 25.07 15.2 59.3 37 0.7 33.3
04:25 1020 30.12 849 25.07 15.1 59.1 37 0.5 32.9
04:30 1020 30.12 849 25.07 14.9 58.9 37 0.6 33.1
04:35 1020 30.12 849 25.07 15.3 59.5 36 0.4 32.7
04:40 1020 30.12 849 25.07 15.2 59.3 38 0.9 33.7
04:45 1020 30.12 849 25.07 15.2 59.3 36 0.5 32.8
04:50 1020 30.12 849 25.07 15.2 59.3 37 0.7 33.2
04:55 1020 30.12 849 25.07 14.9 58.9 37 0.4 32.8
05:00 1020 30.12 849 25.07 14.9 58.8 38 0.7 33.2
05:05 1020 30.12 849 25.07 14.6 58.2 38 0.5 32.9
05:10 1020 30.12 849 25.07 14.6 58.2 38 0.6 33.1
05:15 1020 30.12 849 25.07 14.6 58.3 38 0.5 32.9
05:20 1020 30.12 849 25.07 14.8 58.6 38 0.6 33
05:25 1020 30.12 849 25.07 14.9 58.9 38 0.7 33.2
05:30 1020 30.12 849 25.07 14.8 58.7 38 0.9 33.6
05:35 1020 30.12 849 25.07 14.7 58.4 38 0.8 33.4
05:40 1020 30.12 849 25.07 14.7 58.5 37 0.4 32.7
05:45 1020 30.12 849 25.07 14.9 58.8 37 0.5 33
05:50 1020 30.12 849 25.07 15 58.9 37 0.5 32.8
05:55 1020 30.12 850 25.1 15.3 59.5 37 0.8 33.4
06:00 1020 30.12 850 25.1 15.5 59.8 35 0.1 32.1
06:05 1020 30.12 850 25.1 15.3 59.5 37 0.8 33.4
06:10 1020 30.12 850 25.1 15.1 59.2 39 1.3 34.3
06:15 1020 30.12 850 25.1 15.1 59.2 38 1.1 34.1
06:20 1020 30.12 850 25.1 15.1 59.1 41 2.1 35.8
06:25 1020 30.12 850 25.1 15 59.1 41 2.1 35.8
06:30 1021 30.15 850 25.1 15.3 59.5 40 1.8 35.2
06:35 1021 30.15 850 25.1 15.6 60 39 1.7 35
06:40 1021 30.15 850 25.1 16 60.7 37 1.5 34.7
06:45 1021 30.15 850 25.1 16.3 61.3 38 2 35.5
06:50 1021 30.15 850 25.1 16.6 61.8 39 2.6 36.7
06:55 1021 30.15 850 25.1 16.8 62.2 39 2.8 37.1
07:00 1021 30.15 850 25.1 17.1 62.7 40 3.5 38.3
07:05 1021 30.15 850 25.1 17.5 63.6 39 3.4 38.1
07:10 1021 30.15 850 25.1 17.7 63.9 37 3.1 37.7
07:15 1021 30.15 850 25.1 18.3 65 34 2.2 36
07:20 1021 30.15 850 25.1 18.6 65.5 35 2.9 37.3
07:25 1021 30.15 850 25.1 19.1 66.4 31 1.6 34.8
07:30 1021 30.15 850 25.1 19.1 66.4 35 3.6 38.4
07:35 1021 30.15 850 25.1 19.5 67.2 28 0.9 33.6
07:40 1021 30.15 850 25.1 19.8 67.6 30 2 35.6
07:45 1021 30.15 850 25.1 20.5 68.9 28 1.4 34.6
07:50 1021 30.15 850 25.1 20.9 69.6 26 1 33.9
07:55 1021 30.15 850 25.1 21.1 70 27 1.5 34.8
08:00 1021 30.15 850 25.1 21.4 70.4 25 0.5 32.8
08:05 1021 30.15 850 25.1 21.9 71.3 24 0.8 33.4
08:10 1021 30.15 850 25.1 22.1 71.7 23 0.3 32.6
08:15 1021 30.15 850 25.1 22.2 72 24 1 33.8
08:20 1021 30.15 850 25.1 22.1 71.8 25 1.3 34.4
08:25 1021 30.15 850 25.1 22.4 72.3 24 1.1 34
08:30 1021 30.15 850 25.1 22.9 73.2 24 1.3 34.3
08:35 1021 30.15 850 25.1 23.1 73.5 22 0.7 33.2
08:40 1021 30.15 850 25.1 23.2 73.7 24 1.5 34.7
08:45 1021 30.15 850 25.1 23.1 73.6 24 1.8 35.3
08:50 1021 30.15 850 25.1 23.1 73.6 25 2 35.7
08:55 1020 30.12 850 25.1 23.4 74.1 23 1.3 34.3
09:00 1020 30.12 850 25.1 22.6 72.7 26 2.1 35.8
09:05 1020 30.12 850 25.1 23.1 73.5 24 1.5 34.8
09:10 1020 30.12 850 25.1 22.8 73 25 1.9 35.4
09:15 1020 30.12 850 25.1 23 73.4 27 3.1 37.6
09:20 1020 30.12 850 25.1 23.4 74.2 25 2.4 36.3
09:25 1021 30.15 850 25.1 23.1 73.5 26 2.6 36.6
09:30 1021 30.15 850 25.1 23.5 74.3 25 2.4 36.4
09:35 1021 30.15 850 25.1 23.5 74.3 25 2.6 36.7
09:40 1021 30.15 850 25.1 23.2 73.8 24 2 35.6
09:45 1020 30.12 850 25.1 23.1 73.5 24 1.7 35.1
09:50 1020 30.12 850 25.1 23.7 74.6 22 0.8 33.4
09:55 1020 30.12 850 25.1 24 75.1 24 2.4 36.2
10:00 1020 30.12 850 25.1 24.2 75.5 23 1.7 35
10:05 1020 30.12 850 25.1 24.4 75.9 22 1.4 34.5
10:10 1020 30.12 850 25.1 24.3 75.7 22 1.3 34.4
10:15 1020 30.12 850 25.1 24.7 76.4 21 1.1 34
10:20 1020 30.12 850 25.1 24.9 76.8 21 1.5 34.8
10:25 1020 30.12 850 25.1 23.7 74.7 23 1.5 34.7
10:30 1020 30.12 849 25.07 24.1 75.4 22 1 33.8
10:35 1020 30.12 849 25.07 24.3 75.7 21 0.9 33.5
10:40 1020 30.12 849 25.07 24.7 76.4 21 1.2 34.1
10:45 1020 30.12 849 25.07 24.7 76.5 21 1.5 34.7
10:50 1020 30.12 849 25.07 25.3 77.5 19 0.6 33
10:55 1020 30.12 849 25.07 26.2 79.2 17 -0.1 31.8
11:00 1020 30.12 849 25.07 26 78.8 19 0.6 33
11:05 1020 30.12 849 25.07 26.3 79.4 18 0.5 32.8
11:10 1020 30.12 849 25.07 27.1 80.8 17 0.6 33
11:15 1020 30.12 849 25.07 27.2 80.9 17 0.4 32.8
11:20 1020 30.12 849 25.07 27.5 81.4 16 -0.3 31.5
11:25 1020 30.12 849 25.07 26.9 80.3 18 0.7 33.3
11:30 1020 30.12 849 25.07 26.9 80.4 17 0.3 32.5
11:35 1020 30.12 849 25.07 27.6 81.7 15 -0.9 30.3
11:40 1020 30.12 849 25.07 27.6 81.7 15 -0.8 30.5
11:45 1020 30.12 849 25.07 27.8 82 16 0.2 32.4
11:50 1020 30.12 849 25.07 27.7 81.9 15 -0.8 30.6
11:55 1020 30.12 849 25.07 27.8 82 15 -1 30.3
12:00 1020 30.12 849 25.07 27.6 81.6 17 0.2 32.4
12:05 1019 30.09 849 25.07 27.6 81.7 16 -0.4 31.2
12:10 1019 30.09 849 25.07 27.5 81.5 17 0.9 33.6
12:15 1019 30.09 849 25.07 27.9 82.1 17 1.2 34.1
12:20 1019 30.09 849 25.07 28.2 82.7 16 0.6 33.1
12:25 1019 30.09 849 25.07 28.3 82.9 16 0.6 33.2
12:30 1019 30.09 848 25.04 27.9 82.3 18 1.8 35.3
12:35 1019 30.09 848 25.04 28.3 82.9 17 0.8 33.5
12:40 1019 30.09 848 25.04 27.3 81.2 17 0.8 33.5
12:45 1019 30.09 848 25.04 27.9 82.3 16 -0.3 31.5
12:50 1019 30.09 848 25.04 28.9 84.1 14 -0.6 30.9
12:55 1019 30.09 848 25.04 29.2 84.5 14 -1.2 29.8
13:00 1019 30.09 848 25.04 29.2 84.5 13 -1.4 29.5
13:05 1019 30.09 848 25.04 27.6 81.6 15 -1.3 29.7
13:10 1019 30.09 848 25.04 28.7 83.6 13 -2 28.3
13:15 1019 30.09 848 25.04 29.1 84.5 14 -0.9 30.5
13:20 1019 30.09 848 25.04 28.7 83.6 13 -1.8 28.8
13:25 1019 30.09 848 25.04 29 84.3 13 -1.7 29
13:30 1019 30.09 848 25.04 29.4 84.9 13 -1.4 29.5
13:35 1019 30.09 848 25.04 29 84.2 12 -3.1 26.4
13:40 1019 30.09 848 25.04 28.9 84 12 -3.5 25.7
13:45 1019 30.09 848 25.04 29.3 84.7 11 -4.1 24.7
13:50 1018 30.06 848 25.04 29 84.2 12 -3.4 25.9
13:55 1018 30.06 848 25.04 29.2 84.6 11 -3.6 25.6
14:00 1018 30.06 847 25.01 29.3 84.7 10 -4.8 23.3
14:05 1018 30.06 847 25.01 29.6 85.2 12 -3.1 26.5
14:10 1018 30.06 847 25.01 29.5 85 12 -2.6 27.2
14:15 1018 30.06 847 25.01 29.4 84.9 11 -3.8 25.1
14:20 1018 30.06 847 25.01 29.3 84.7 10 -5.3 22.5
14:25 1018 30.06 847 25.01 29.5 85.1 10 -5.6 22
14:30 1018 30.06 847 25.01 29.3 84.8 8 -7.4 18.7
14:35 1018 30.06 847 25.01 30.3 86.6 7 -9.4 15
14:40 1018 30.06 847 25.01 30.1 86.1 8 -7.6 18.4
14:45 1018 30.06 847 25.01 30.2 86.3 9 -5.8 21.6
14:50 1018 30.06 847 25.01 29.9 85.7 10 -4.8 23.3
14:55 1018 30.06 847 25.01 29.7 85.5 10 -5.2 22.6
15:00 1018 30.06 847 25.01 29.9 85.9 10 -4.1 24.6
15:05 1018 30.06 847 25.01 29.8 85.7 10 -4.3 24.3
15:10 1018 30.06 847 25.01 29.8 85.6 10 -4.2 24.5
15:15 1018 30.06 847 25.01 29.6 85.2 10 -4.3 24.2
15:20 1018 30.06 847 25.01 29.5 85 10 -4.6 23.8
15:25 1018 30.06 847 25.01 29.8 85.7 10 -5 23
15:30 1017 30.03 847 25.01 30.2 86.4 10 -4 24.8
15:35 1017 30.03 847 25.01 30.2 86.3 9 -6.1 20.9
15:40 1017 30.03 847 25.01 29.3 84.8 9 -6.2 20.8
15:45 1017 30.03 847 25.01 29.6 85.2 9 -6.2 20.8
15:50 1017 30.03 846 24.98 29.6 85.2 9 -6.4 20.5
15:55 1017 30.03 846 24.98 29.8 85.6 9 -6.6 20.2
16:00 1017 30.03 846 24.98 29.8 85.7 9 -6.4 20.4
16:05 1017 30.03 846 24.98 30 86 8 -8.2 17.3
16:10 1017 30.03 846 24.98 29.4 85 9 -6.1 21
16:15 1017 30.03 846 24.98 29.6 85.3 8 -7.8 18
16:20 1017 30.03 846 24.98 29.2 84.5 9 -7.2 19
16:25 1017 30.03 846 24.98 29.1 84.4 9 -6.3 20.6
16:30 1017 30.03 846 24.98 29 84.3 9 -6.8 19.7
16:35 1017 30.03 846 24.98 28.9 84 9 -6.8 19.8
16:40 1017 30.03 846 24.98 29.3 84.7 9 -6.1 21
16:45 1017 30.03 846 24.98 29.6 85.2 10 -5.6 22
16:50 1017 30.03 846 24.98 29.7 85.4 9 -5.9 21.4
16:55 1017 30.03 846 24.98 30.1 86.3 10 -4.7 23.6
17:00 1017 30.03 846 24.98 30.3 86.6 10 -4.8 23.4
17:05 1016 30 846 24.98 30.3 86.6 10 -4.8 23.4
17:10 1016 30 846 24.98 29.8 85.7 11 -3.7 25.4
17:15 1016 30 846 24.98 30.2 86.3 10 -3.9 25
17:20 1016 30 846 24.98 30.4 86.6 11 -3.3 26
17:25 1016 30 846 24.98 30.3 86.5 11 -3.2 26.2
17:30 1016 30 846 24.98 30.5 86.8 10 -3.8 25.1
17:35 1016 30 845 24.95 30.3 86.5 10 -4 24.8
17:40 1016 30 845 24.95 29.8 85.6 11 -4 24.8
17:45 1016 30 845 24.95 29.3 84.8 11 -4.5 24
17:50 1016 30 845 24.95 29.3 84.7 13 -1.6 29.2
17:55 1016 30 845 24.95 29.9 85.8 11 -3.2 26.3
18:00 1016 30 845 24.95 30.1 86.2 11 -3.9 25.1
18:05 1016 30 845 24.95 30 86 12 -2.3 27.9
18:10 1016 30 845 24.95 30 85.9 11 -3.5 25.7
18:15 1016 30 845 24.95 30.3 86.5 11 -3 26.6
18:20 1016 30 845 24.95 29.9 85.9 11 -3.8 25.2
18:25 1016 30 845 24.95 28.8 83.9 12 -3.7 25.4
18:30 1016 30 845 24.95 28.6 83.4 13 -2.2 28
18:35 1016 30 845 24.95 28.5 83.3 12 -3.4 25.9
18:40 1016 30 845 24.95 28.5 83.2 12 -3.7 25.4
18:45 1016 30 845 24.95 28.4 83.1 11 -4.3 24.2
18:50 1016 30 845 24.95 28.3 83 12 -3.2 26.2
18:55 1016 30 845 24.95 28.3 82.9 12 -3.9 25
19:00 1016 30 845 24.95 28.2 82.7 11 -4.2 24.4
19:05 1016 30 845 24.95 28.1 82.5 12 -3.5 25.7
19:10 1016 30 845 24.95 27.9 82.3 12 -4.1 24.6
19:15 1016 30 845 24.95 27.9 82.3 12 -3.7 25.3
19:20 1016 30 845 24.95 27.9 82.1 15 -0.7 30.8
19:25 1016 30 845 24.95 27.4 81.3 22 4.1 39.4
19:30 1016 30 845 24.95 26.9 80.5 23 4.5 40.1
19:35 1016 30 845 24.95 26.5 79.7 26 5.8 42.4
19:40 1016 30 845 24.95 26.1 79.1 25 4.6 40.3
19:45 1016 30 845 24.95 25.7 78.2 27 5.8 42.4
19:50 1016 30 845 24.95 25.1 77.1 30 6.5 43.7
19:55 1016 30 845 24.95 24.5 76.2 31 6.4 43.5
20:00 1016 30 845 24.95 23.9 75 32 6.4 43.5
20:05 1016 30 845 24.95 23.1 73.7 32 5.8 42.4
20:10 1016 30 845 24.95 22.6 72.7 32 5.4 41.7
20:15 1016 30 845 24.95 22.3 72.1 36 6.6 43.8
20:20 1016 30 845 24.95 21.4 70.5 41 7.8 46
20:25 1016 30 845 24.95 20.6 69.1 41 6.9 44.5
20:30 1016 30 845 24.95 20.7 69.2 30 2.7 36.9
20:35 1016 30 845 24.95 21.1 70 32 3.8 38.8
20:40 1016 30 845 24.95 20.8 69.5 29 2.3 36.1
20:45 1016 30 845 24.95 21 69.7 28 2.1 35.8
20:50 1016 30 845 24.95 20.8 69.5 28 1.8 35.2
20:55 1016 30 845 24.95 20.6 69 28 1.5 34.7
21:00 1016 30 845 24.95 20.3 68.6 28 1.5 34.7
21:05 1016 30 845 24.95 20 68 29 1.8 35.2
21:10 1016 30 845 24.95 19.7 67.5 29 1.4 34.5
21:15 1016 30 845 24.95 19.6 67.3 29 1.2 34.1
21:20 1016 30 845 24.95 19.5 67.2 31 2.1 35.8
21:25 1016 30 845 24.95 19.2 66.5 30 1.5 34.7
21:30 1016 30 845 24.95 19 66.1 30 1.1 34
21:35 1016 30 845 24.95 19.2 66.6 27 0.1 32.3
21:40 1016 30 845 24.95 19.8 67.6 26 0 32.1
21:45 1016 30 845 24.95 19.8 67.6 27 0.2 32.4
21:50 1016 30 845 24.95 19.4 67 28 0.6 33.1
21:55 1016 30 845 24.95 19.3 66.7 27 -0 31.9
22:00 1016 30 845 24.95 19.4 66.9 27 -0 31.9
22:05 1016 30 845 24.95 19.5 67.1 27 0.2 32.3
22:10 1016 30 845 24.95 19.4 66.9 27 0.1 32.2
22:15 1016 30 845 24.95 19.1 66.4 27 -0.2 31.7
22:20 1016 30 845 24.95 19 66.2 28 0 32
22:25 1016 30 845 24.95 18.8 65.9 28 -0.1 31.7
22:30 1016 30 845 24.95 19 66.2 27 -0.4 31.3
22:35 1016 30 845 24.95 19.3 66.7 26 -0.5 31
22:40 1016 30 845 24.95 19.4 66.9 26 -0.6 30.9
22:45 1016 30 845 24.95 19.2 66.6 26 -0.6 31
22:50 1016 30 845 24.95 19.3 66.7 25 -1.1 30
22:55 1016 30 845 24.95 20.1 68.2 25 -0.2 31.7
23:00 1016 30 845 24.95 19.9 67.9 27 0.5 32.9
23:05 1016 30 845 24.95 19.2 66.6 28 0.5 32.9
23:10 1016 30 845 24.95 18.4 65.2 31 1.1 34
23:15 1016 30 845 24.95 17.7 63.8 34 1.6 34.8
23:20 1016 30 846 24.98 17.1 62.8 34 1.2 34.2
23:25 1016 30 845 24.95 17.1 62.7 33 0.8 33.4
23:30 1016 30 845 24.95 17.2 63 32 0.7 33.2
23:35 1016 30 845 24.95 17.2 63 32 0.4 32.7
23:40 1016 30 845 24.95 17 62.7 34 1.1 34
23:45 1016 30 845 24.95 16.7 62 33 0.4 32.7
23:50 1016 30 845 24.95 16.8 62.2 34 0.8 33.4
23:55 1016 30 845 24.95 16.8 62.2 35 1.3 34.3
24:00 1016 30 845 24.95 16.7 62 35 1.2 34.2